San Diego, California
Current Conditions -  °F | °C
As of 9:51 PM on Sunday 25 Jan 2015 (Local Time) from KSAN Reporting Station
Broken Clouds Broken Clouds  
Wind Chill: 68°   Ceiling: 25000
Heat Index: 68°   Visibility: 10mi
Dew Point: 35°   Wind: 8mph
Humidity: 30%   Direction: 220°SW
Pressure: 30.02"   Gusts: NA
Location:  32.72°N, 117.16°W
Report Text: KSAN 260551Z 22007KT 10SM SCT150 BKN250 20/02 A3002 RMK AO2 SLP167 T02000017 10233 20189 51003
Loading
Personal Weather Stations






























Interactive Weather Map New forecast layout! Learn more

10-Day Weather Forecast

Advertisements
Track Severe Weather on mobile